createdAt,value
2019-04-20T00:02:29.614Z,44.91
2019-04-20T00:05:13.104Z,44.62
2019-04-20T00:08:09.031Z,45.16
2019-04-20T00:11:17.488Z,45.03
2019-04-20T00:14:07.173Z,45.19
2019-04-20T00:17:05.190Z,45.22
2019-04-20T00:19:57.806Z,45.57
2019-04-20T00:23:26.887Z,45.00
2019-04-20T00:26:59.823Z,45.46
2019-04-20T00:29:52.377Z,45.30
2019-04-20T00:32:41.334Z,45.79
2019-04-20T00:35:32.103Z,45.89
2019-04-20T00:38:25.989Z,45.55
2019-04-20T00:41:27.677Z,45.92
2019-04-20T00:44:23.285Z,46.01
2019-04-20T00:47:34.855Z,46.10
2019-04-20T00:50:29.791Z,46.77
2019-04-20T00:53:26.250Z,46.44
2019-04-20T00:56:11.914Z,46.91
2019-04-20T00:59:30.228Z,46.76
2019-04-20T01:02:20.872Z,47.03
2019-04-20T01:11:54.384Z,47.71
2019-04-20T01:14:51.674Z,47.51
2019-04-20T01:17:49.352Z,47.31
2019-04-20T01:20:41.017Z,47.80
2019-04-20T01:23:50.755Z,48.25
2019-04-20T01:26:45.968Z,47.80
2019-04-20T01:29:48.800Z,48.07
2019-04-20T01:32:51.708Z,48.46
2019-04-20T01:35:53.471Z,48.35
2019-04-20T01:38:43.530Z,48.71
2019-04-20T01:41:35.123Z,48.93
2019-04-20T01:44:31.786Z,49.01
2019-04-20T01:47:36.710Z,49.16
2019-04-20T01:50:26.065Z,49.62
2019-04-20T01:53:46.981Z,49.70
2019-04-20T01:59:52.014Z,50.20
2019-04-20T02:03:13.075Z,50.14
2019-04-20T02:06:20.062Z,50.17
2019-04-20T02:12:10.506Z,50.63
2019-04-20T02:14:55.237Z,51.06
2019-04-20T02:17:51.917Z,51.44
2019-04-20T02:21:07.276Z,51.71
2019-04-20T02:23:47.497Z,51.69
2019-04-20T02:26:43.005Z,51.86
2019-04-20T02:30:04.342Z,51.83
2019-04-20T02:36:38.211Z,51.62
2019-04-20T02:43:09.429Z,52.08
2019-04-20T02:49:00.664Z,51.67
2019-04-20T02:51:54.034Z,51.89
2019-04-20T02:54:53.544Z,51.52
2019-04-20T03:00:38.576Z,51.97
2019-04-20T03:03:22.579Z,51.73
2019-04-20T03:06:26.353Z,51.98
2019-04-20T03:09:32.571Z,51.95
2019-04-20T03:12:52.215Z,52.10
2019-04-20T03:15:18.549Z,52.44
2019-04-20T03:18:12.090Z,52.19
2019-04-20T03:21:21.272Z,52.13
2019-04-20T03:31:30.763Z,51.55
2019-04-20T03:34:40.055Z,51.44
2019-04-20T03:37:06.826Z,51.78
2019-04-20T03:40:04.337Z,51.16
2019-04-20T03:42:40.515Z,51.51
2019-04-20T03:45:25.426Z,51.59
2019-04-20T03:48:34.210Z,51.40
2019-04-20T03:51:41.194Z,51.49
2019-04-20T03:54:41.608Z,51.60
2019-04-20T04:02:09.273Z,52.17
2019-04-20T04:05:04.596Z,52.54
2019-04-20T04:07:41.551Z,51.89
2019-04-20T04:10:35.252Z,52.12
2019-04-20T04:13:29.150Z,52.26
2019-04-20T04:16:16.397Z,52.49
2019-04-20T04:19:12.697Z,52.94
2019-04-20T04:22:21.116Z,52.85
2019-04-20T04:25:14.818Z,53.60
2019-04-20T04:28:22.535Z,53.22
2019-04-20T04:31:22.976Z,53.47
2019-04-20T04:34:27.924Z,54.07
2019-04-20T04:37:17.976Z,54.14
2019-04-20T04:40:27.915Z,53.76
2019-04-20T04:43:10.183Z,53.51
2019-04-20T04:45:57.417Z,53.59
2019-04-20T04:48:51.078Z,53.45
2019-04-20T04:52:01.075Z,52.62
2019-04-20T04:54:53.749Z,53.59
2019-04-20T04:57:49.536Z,53.58
2019-04-20T05:00:40.834Z,53.76
2019-04-20T05:04:10.537Z,53.94
2019-04-20T05:06:43.407Z,53.64
2019-04-20T05:09:22.635Z,53.47
2019-04-20T05:12:28.881Z,52.64
2019-04-20T05:15:22.685Z,52.28
2019-04-20T05:18:28.881Z,51.71
2019-04-20T05:21:55.262Z,52.14
2019-04-20T05:24:58.039Z,52.22
2019-04-20T05:27:50.878Z,52.80
2019-04-20T05:30:03.772Z,52.68
2019-04-20T05:32:44.601Z,52.72
2019-04-20T05:35:35.456Z,51.87
2019-04-20T05:38:06.964Z,51.97
2019-04-20T05:40:32.697Z,51.68
2019-04-20T05:43:17.894Z,52.18
2019-04-20T05:45:45.067Z,51.87
2019-04-20T05:48:18.531Z,51.29
2019-04-20T05:50:57.685Z,51.10
2019-04-20T05:53:32.606Z,50.94
2019-04-20T05:56:00.693Z,51.25
2019-04-20T05:58:34.305Z,51.28
2019-04-20T06:01:12.287Z,51.01
2019-04-20T06:03:38.155Z,50.69
2019-04-20T06:06:15.445Z,50.50
2019-04-20T06:08:53.793Z,50.14
2019-04-20T06:11:23.491Z,50.38
2019-04-20T06:14:05.384Z,49.94
2019-04-20T06:16:56.831Z,48.92
2019-04-20T06:19:39.598Z,49.10
2019-04-20T06:22:10.289Z,48.39
2019-04-20T06:25:06.112Z,48.21
2019-04-20T06:27:38.167Z,47.93
2019-04-20T06:30:01.439Z,48.16
2019-04-20T06:33:45.081Z,48.33
2019-04-20T06:43:46.024Z,47.00
2019-04-20T06:46:22.517Z,46.80
2019-04-20T06:48:56.848Z,46.56
2019-04-20T06:51:30.001Z,45.86
2019-04-20T06:53:57.616Z,45.26
2019-04-20T06:56:41.711Z,44.69
2019-04-20T06:59:21.432Z,44.80
2019-04-20T07:01:56.829Z,43.71
2019-04-20T07:04:43.269Z,43.12
2019-04-20T07:06:56.245Z,41.99
2019-04-20T07:09:39.921Z,41.34
2019-04-20T07:11:58.076Z,39.52
2019-04-20T07:14:31.398Z,39.01
2019-04-20T07:17:31.614Z,38.77
2019-04-20T07:20:04.112Z,39.02
2019-04-20T07:22:46.662Z,38.86
2019-04-20T07:25:23.139Z,39.03
2019-04-20T07:27:53.741Z,37.13
2019-04-20T07:30:24.146Z,36.93
2019-04-20T07:32:57.983Z,36.61
2019-04-20T07:35:30.551Z,36.21
2019-04-20T07:38:23.401Z,35.21
2019-04-20T07:40:38.170Z,34.93
2019-04-20T07:43:08.134Z,34.63
2019-04-20T07:45:36.729Z,33.67
2019-04-20T07:48:29.564Z,33.50
2019-04-20T07:50:46.226Z,32.40
2019-04-20T07:53:20.227Z,32.04
2019-04-20T07:56:16.555Z,31.38
2019-04-20T07:58:29.471Z,30.78
2019-04-20T08:01:21.206Z,30.37
2019-04-20T08:04:06.004Z,30.24
2019-04-20T08:06:28.917Z,30.18
2019-04-20T08:09:07.153Z,30.03
2019-04-20T08:11:50.049Z,30.01
2019-04-20T08:14:27.114Z,30.12
2019-04-20T08:17:09.159Z,29.62
2019-04-20T08:19:23.434Z,28.89
2019-04-20T08:22:02.489Z,28.34
2019-04-20T08:24:27.751Z,28.23
2019-04-20T08:26:53.049Z,27.91
2019-04-20T08:29:37.910Z,27.48
2019-04-20T08:32:24.089Z,27.68
2019-04-20T08:34:59.538Z,27.18
2019-04-20T08:37:29.616Z,26.45
2019-04-20T08:40:09.604Z,25.45
2019-04-20T08:42:47.698Z,25.85
2019-04-20T08:45:12.547Z,25.70
2019-04-20T08:47:51.392Z,25.28
2019-04-20T08:50:22.424Z,24.87
2019-04-20T08:53:09.040Z,24.45
2019-04-20T08:55:23.988Z,25.19
2019-04-20T08:57:37.949Z,24.64
2019-04-20T09:00:11.130Z,24.49
2019-04-20T09:02:52.147Z,23.46
2019-04-20T09:05:32.937Z,22.71
2019-04-20T09:08:00.502Z,22.64
2019-04-20T09:10:45.399Z,22.17
2019-04-20T09:13:08.374Z,22.53
2019-04-20T09:15:29.914Z,22.37
2019-04-20T09:18:13.562Z,22.35
2019-04-20T09:20:48.726Z,22.08
2019-04-20T09:23:33.496Z,22.31
2019-04-20T09:26:10.458Z,21.47
2019-04-20T09:28:35.387Z,21.84
2019-04-20T09:31:28.261Z,21.21
2019-04-20T09:34:05.983Z,21.08
2019-04-20T09:36:46.018Z,20.80
2019-04-20T09:39:24.710Z,21.10
2019-04-20T09:42:07.665Z,20.11
2019-04-20T09:44:42.693Z,20.23
2019-04-20T09:47:12.349Z,20.42
2019-04-20T09:49:55.465Z,20.46
2019-04-20T09:52:32.196Z,20.43
2019-04-20T09:55:03.153Z,20.45
2019-04-20T09:57:37.956Z,20.53
2019-04-20T10:00:14.656Z,20.30
2019-04-20T10:02:32.912Z,19.84
2019-04-20T10:05:02.378Z,19.62
2019-04-20T10:07:36.015Z,19.48
2019-04-20T10:10:22.731Z,20.29
2019-04-20T10:12:43.940Z,19.82
2019-04-20T10:15:19.487Z,19.41
2019-04-20T10:17:49.797Z,18.60
2019-04-20T10:20:28.328Z,19.23
2019-04-20T10:22:54.451Z,19.03
2019-04-20T10:25:26.682Z,18.13
2019-04-20T10:27:58.085Z,18.48
2019-04-20T10:30:30.574Z,18.38
2019-04-20T10:33:01.862Z,18.07
2019-04-20T10:35:33.822Z,18.49
2019-04-20T10:38:09.673Z,18.03
2019-04-20T10:40:50.701Z,18.04
2019-04-20T10:43:14.198Z,18.37
2019-04-20T10:45:46.831Z,18.67
2019-04-20T10:48:19.323Z,17.58
2019-04-20T10:50:50.727Z,17.35
2019-04-20T10:53:22.091Z,17.84
2019-04-20T10:55:53.565Z,17.36
2019-04-20T10:58:25.286Z,16.98
2019-04-20T11:00:57.691Z,17.04
2019-04-20T11:03:29.151Z,17.01
2019-04-20T11:06:00.734Z,16.56
2019-04-20T11:08:32.907Z,17.24
2019-04-20T11:11:12.684Z,16.92
2019-04-20T11:13:37.577Z,17.24
2019-04-20T11:16:09.009Z,17.16
2019-04-20T11:18:40.330Z,17.19
2019-04-20T11:21:11.630Z,16.36
2019-04-20T11:23:42.952Z,16.77
2019-04-20T11:26:14.379Z,16.21
2019-04-20T11:28:46.218Z,16.30
2019-04-20T11:31:17.593Z,16.16
2019-04-20T11:33:49.997Z,15.60
2019-04-20T11:36:21.336Z,15.65
2019-04-20T11:38:53.060Z,16.22
2019-04-20T11:41:29.079Z,15.62
2019-04-20T11:43:59.716Z,15.39
2019-04-20T11:46:32.364Z,15.69
2019-04-20T11:49:03.906Z,16.14
2019-04-20T11:51:35.260Z,16.31
2019-04-20T11:54:06.700Z,16.43
2019-04-20T11:56:40.820Z,15.82
2019-04-20T11:59:12.363Z,16.04
2019-04-20T12:02:07.678Z,15.92
2019-04-20T12:04:49.973Z,15.66
2019-04-20T12:07:17.094Z,15.38
2019-04-20T12:09:49.367Z,15.83
2019-04-20T12:12:31.239Z,15.26
2019-04-20T12:14:54.814Z,15.14
2019-04-20T12:17:26.273Z,14.91
2019-04-20T12:19:57.796Z,14.90
2019-04-20T12:22:30.339Z,15.00
2019-04-20T12:25:02.550Z,15.05
2019-04-20T12:27:34.521Z,14.74
2019-04-20T12:30:08.128Z,14.79
2019-04-20T12:32:43.946Z,14.22
2019-04-20T12:35:14.089Z,14.48
2019-04-20T12:37:47.344Z,14.68
2019-04-20T12:40:19.884Z,13.91
2019-04-20T12:42:52.962Z,13.84
2019-04-20T12:45:25.925Z,13.49
2019-04-20T12:47:57.633Z,13.90
2019-04-20T12:50:29.802Z,13.73
2019-04-20T12:53:02.353Z,13.49
2019-04-20T12:55:34.699Z,13.34
2019-04-20T12:58:06.234Z,13.62
2019-04-20T13:00:49.249Z,13.49
2019-04-20T13:03:21.435Z,13.40
2019-04-20T13:05:54.235Z,13.69
2019-04-20T13:08:33.679Z,13.32
2019-04-20T13:11:08.684Z,12.64
2019-04-20T13:14:10.940Z,13.05
2019-04-20T13:16:42.281Z,13.09
2019-04-20T13:19:14.884Z,13.49
2019-04-20T13:21:47.235Z,13.83
2019-04-20T13:24:18.898Z,13.87
2019-04-20T13:26:51.002Z,14.27
2019-04-20T13:29:22.735Z,14.48
2019-04-20T13:31:56.316Z,13.95
2019-04-20T13:34:28.394Z,14.08
2019-04-20T13:37:00.086Z,14.30
2019-04-20T13:39:31.459Z,13.71
2019-04-20T13:42:10.548Z,13.75
2019-04-20T13:44:36.949Z,13.67
2019-04-20T13:47:09.162Z,13.99
2019-04-20T13:49:40.979Z,13.54
2019-04-20T13:52:12.919Z,13.91
2019-04-20T13:54:45.223Z,13.38
2019-04-20T13:57:19.802Z,12.72
2019-04-20T13:59:55.871Z,13.08
2019-04-20T14:02:44.755Z,13.26
2019-04-20T14:05:22.844Z,12.68
2019-04-20T14:07:55.486Z,12.60
2019-04-20T14:10:27.084Z,12.82
2019-04-20T14:13:06.121Z,12.86
2019-04-20T14:15:31.723Z,13.46
2019-04-20T14:18:03.339Z,13.29
2019-04-20T14:20:36.135Z,13.50
2019-04-20T14:23:07.650Z,13.17
2019-04-20T14:25:38.996Z,13.25
2019-04-20T14:28:11.350Z,13.31
2019-04-20T14:30:43.707Z,13.34
2019-04-20T14:33:15.262Z,12.95
2019-04-20T14:35:47.008Z,13.02
2019-04-20T14:38:20.187Z,12.94
2019-04-20T14:40:52.573Z,12.95
2019-04-20T14:43:24.923Z,13.21
2019-04-20T14:45:56.706Z,13.62
2019-04-20T14:48:28.896Z,14.14
2019-04-20T14:51:01.523Z,13.96
2019-04-20T14:53:33.617Z,14.17
2019-04-20T14:56:05.373Z,13.80
2019-04-20T14:58:59.921Z,13.78
2019-04-20T15:01:44.826Z,14.01
2019-04-20T15:04:18.643Z,13.73
2019-04-20T15:06:50.549Z,14.22
2019-04-20T15:09:21.868Z,14.21
2019-04-20T15:11:53.264Z,14.06
2019-04-20T15:14:24.927Z,14.12
2019-04-20T15:16:56.456Z,14.39
2019-04-20T15:19:45.569Z,14.22
2019-04-20T15:22:35.931Z,14.33
2019-04-20T15:25:08.012Z,14.53
2019-04-20T15:27:42.501Z,15.00
2019-04-20T15:30:14.091Z,15.20
2019-04-20T15:32:45.611Z,15.01
2019-04-20T15:35:19.189Z,15.23
2019-04-20T15:37:51.063Z,15.35
2019-04-20T15:40:23.515Z,15.46
2019-04-20T15:43:05.999Z,15.74
2019-04-20T15:45:29.212Z,15.88
2019-04-20T15:48:01.821Z,15.81
2019-04-20T15:50:33.905Z,15.75
2019-04-20T15:53:05.944Z,15.72
2019-04-20T15:55:39.543Z,15.89
2019-04-20T15:58:10.476Z,15.61
2019-04-20T16:00:42.529Z,16.18
2019-04-20T16:03:21.431Z,16.18
2019-04-20T16:06:18.943Z,16.14
2019-04-20T16:08:54.456Z,16.24
2019-04-20T16:11:26.639Z,16.71
2019-04-20T16:13:59.710Z,16.84
2019-04-20T16:16:31.976Z,16.84
2019-04-20T16:19:10.698Z,16.74
2019-04-20T16:21:37.460Z,16.79
2019-04-20T16:24:18.980Z,17.24
2019-04-20T16:27:13.625Z,17.50
2019-04-20T16:29:45.603Z,18.11
2019-04-20T16:32:18.381Z,18.49
2019-04-20T16:34:50.704Z,18.73
2019-04-20T16:37:22.417Z,19.05
2019-04-20T16:39:54.645Z,19.38
2019-04-20T16:42:26.650Z,19.40
2019-04-20T16:44:59.147Z,19.98
2019-04-20T16:47:30.528Z,20.29
2019-04-20T16:50:01.862Z,19.96
2019-04-20T16:52:33.225Z,19.95
2019-04-20T16:55:06.048Z,19.92
2019-04-20T16:57:37.758Z,19.78
2019-04-20T17:00:09.591Z,19.86
2019-04-20T17:02:40.929Z,20.16
2019-04-20T17:05:13.477Z,20.34
2019-04-20T17:07:46.919Z,20.52
2019-04-20T17:10:20.186Z,20.62
2019-04-20T17:12:51.876Z,21.11
2019-04-20T17:15:23.590Z,21.41
2019-04-20T17:17:57.046Z,21.84
2019-04-20T17:20:28.916Z,22.03
2019-04-20T17:23:02.114Z,22.55
2019-04-20T17:25:34.406Z,22.59
2019-04-20T17:28:28.901Z,23.03
2019-04-20T17:31:17.676Z,23.26
2019-04-20T17:34:02.598Z,23.51
2019-04-20T17:36:30.768Z,23.66
2019-04-20T17:39:04.661Z,23.96
2019-04-20T17:41:48.779Z,23.86
2019-04-20T17:44:20.999Z,24.17
2019-04-20T17:46:50.452Z,24.30
2019-04-20T17:49:28.103Z,24.12
2019-04-20T17:52:05.185Z,24.29
2019-04-20T17:54:39.790Z,24.24
2019-04-20T17:57:13.073Z,24.35
2019-04-20T17:59:52.977Z,24.57
2019-04-20T18:02:58.592Z,24.54
2019-04-20T18:05:39.393Z,24.71
2019-04-20T18:08:16.508Z,24.83
2019-04-20T18:10:38.833Z,25.00
2019-04-20T18:13:09.478Z,25.27
2019-04-20T18:15:48.850Z,25.36
2019-04-20T18:18:35.336Z,25.58
2019-04-20T18:21:10.862Z,25.79
2019-04-20T18:23:46.276Z,25.77
2019-04-20T18:26:41.996Z,25.93
2019-04-20T18:29:30.829Z,26.10
2019-04-20T18:31:33.786Z,26.24
2019-04-20T18:34:14.558Z,26.41
2019-04-20T18:36:44.607Z,26.39
2019-04-20T18:39:17.664Z,26.82
2019-04-20T18:41:52.203Z,26.69
2019-04-20T18:44:27.996Z,26.84
2019-04-20T18:47:21.566Z,26.86
2019-04-20T18:49:43.139Z,26.72
2019-04-20T18:52:02.008Z,26.92
2019-04-20T18:54:39.065Z,27.02
2019-04-20T18:57:11.128Z,27.09
2019-04-20T18:59:42.872Z,27.25
2019-04-20T19:02:20.044Z,27.16
2019-04-20T19:04:46.016Z,27.05
2019-04-20T19:07:17.605Z,27.34
2019-04-20T19:10:00.358Z,27.32
2019-04-20T19:12:36.679Z,27.39
2019-04-20T19:15:30.588Z,27.60
2019-04-20T19:18:05.728Z,27.62
2019-04-20T19:20:30.725Z,27.63
2019-04-20T19:23:02.257Z,27.91
2019-04-20T19:25:37.472Z,27.97
2019-04-20T19:28:07.519Z,28.06
2019-04-20T19:30:49.809Z,28.30
2019-04-20T19:33:30.423Z,28.28
2019-04-20T19:35:57.368Z,28.33
2019-04-20T19:38:25.764Z,28.45
2019-04-20T19:41:01.749Z,28.83
2019-04-20T19:43:31.553Z,28.88
2019-04-20T19:46:37.907Z,29.00
2019-04-20T19:48:40.507Z,29.24
2019-04-20T19:51:29.539Z,29.46
2019-04-20T19:54:01.015Z,29.15
2019-04-20T19:56:31.003Z,29.04
2019-04-20T19:59:01.140Z,29.35
2019-04-20T20:01:17.738Z,29.53
2019-04-20T20:03:56.300Z,29.53
2019-04-20T20:06:29.388Z,29.40
2019-04-20T20:09:01.869Z,29.81
2019-04-20T20:11:34.084Z,29.51
2019-04-20T20:14:06.131Z,29.79
2019-04-20T20:16:56.228Z,29.85
2019-04-20T20:19:21.042Z,29.61
2019-04-20T20:21:59.062Z,29.90
2019-04-20T20:24:17.396Z,30.07
2019-04-20T20:26:53.372Z,29.86
2019-04-20T20:29:32.716Z,30.13
2019-04-20T20:32:08.505Z,30.33
2019-04-20T20:34:34.522Z,30.20
2019-04-20T20:37:08.507Z,30.35
2019-04-20T20:39:36.649Z,30.38
2019-04-20T20:42:21.953Z,30.20
2019-04-20T20:44:48.634Z,30.30
2019-04-20T20:47:40.016Z,30.56
2019-04-20T20:50:08.287Z,30.79
2019-04-20T20:52:39.373Z,30.66
2019-04-20T20:54:59.107Z,30.19
2019-04-20T20:57:37.185Z,30.00
2019-04-20T21:00:03.717Z,30.19
2019-04-20T21:02:42.100Z,30.22
2019-04-20T21:05:04.328Z,30.05
2019-04-20T21:07:36.519Z,30.21
2019-04-20T21:10:10.276Z,30.25
2019-04-20T21:12:46.504Z,30.27
2019-04-20T21:15:22.157Z,30.52
2019-04-20T21:18:11.103Z,30.58
2019-04-20T21:20:44.432Z,30.68
2019-04-20T21:23:07.163Z,30.59
2019-04-20T21:25:41.717Z,30.88
2019-04-20T21:28:06.946Z,30.61
2019-04-20T21:30:43.234Z,30.81
2019-04-20T21:33:13.061Z,31.12
2019-04-20T21:35:48.571Z,30.96
2019-04-20T21:38:18.956Z,31.42
2019-04-20T21:41:00.664Z,31.22
2019-04-20T21:43:29.922Z,31.34
2019-04-20T21:46:02.851Z,31.35
2019-04-20T21:48:44.106Z,31.52
2019-04-20T21:51:19.041Z,31.55
2019-04-20T21:53:37.109Z,31.77
2019-04-20T21:56:10.188Z,32.03
2019-04-20T21:58:48.303Z,31.66
2019-04-20T22:01:25.215Z,31.91
2019-04-20T22:03:50.267Z,32.54
2019-04-20T22:06:22.436Z,32.54
2019-04-20T22:08:57.802Z,32.78
2019-04-20T22:11:27.831Z,32.81
2019-04-20T22:14:03.060Z,32.69
2019-04-20T22:16:38.894Z,33.13
2019-04-20T22:19:22.343Z,32.88
2019-04-20T22:21:50.350Z,33.42
2019-04-20T22:24:29.797Z,33.34
2019-04-20T22:26:54.952Z,34.22
2019-04-20T22:29:18.354Z,34.18
2019-04-20T22:31:56.721Z,34.19
2019-04-20T22:34:25.959Z,34.02
2019-04-20T22:36:56.075Z,34.55
2019-04-20T22:39:39.096Z,34.65
2019-04-20T22:42:08.935Z,34.49
2019-04-20T22:44:37.009Z,33.75
2019-04-20T22:47:13.907Z,34.08
2019-04-20T22:49:51.588Z,34.17
2019-04-20T22:52:30.389Z,33.75
2019-04-20T22:55:12.536Z,33.73
2019-04-20T22:57:36.291Z,34.04
2019-04-20T23:00:02.669Z,33.61
2019-04-20T23:02:28.340Z,34.30
2019-04-20T23:05:00.698Z,33.81
2019-04-20T23:07:32.693Z,34.22
2019-04-20T23:10:05.427Z,34.36
2019-04-20T23:12:40.032Z,34.73
2019-04-20T23:15:12.064Z,35.44
2019-04-20T23:17:46.827Z,34.38
2019-04-20T23:20:24.618Z,34.86
2019-04-20T23:22:51.334Z,35.34
2019-04-20T23:25:23.010Z,35.36
2019-04-20T23:28:00.552Z,34.91
2019-04-20T23:30:31.422Z,35.32
2019-04-20T23:33:00.457Z,35.29
2019-04-20T23:35:33.365Z,35.24
2019-04-20T23:38:11.229Z,35.46
2019-04-20T23:40:38.014Z,34.69
2019-04-20T23:43:23.403Z,34.78
2019-04-20T23:46:29.633Z,34.93
2019-04-20T23:49:24.106Z,34.81
2019-04-20T23:52:11.880Z,35.23
2019-04-20T23:54:27.385Z,35.77
2019-04-20T23:56:55.674Z,35.97
2019-04-20T23:59:34.366Z,36.11
